メインページ
METAR-TAF:

METAR-TAF

空港 :

ジッダ, サウジアラビア

キング・アブドゥルアズィーズ国際空港

緯度: 21-42N, 経度: 039-11E, 海抜: 15m

現時点の気象観測

当レポートは29分前の09:00(UTC)に作成
の風 14kt
気温 31°C
湿度 29%
気圧 1010 hPa
視程10km以上
1,500メートル以下は雲なし、積乱雲なし

METAR: OEJN 250900Z 36014KT CAVOK 31/11 Q1010 NOSIG

時間: 12:29 (09:29 UTC)

予報

当レポートは4時間29分前の05:00(UTC)に作成
予報は25日の 06時(UTC)から 26日の 12時(UTC)まで有効
北西の風 5kt、最大15ktの突風を伴う
視程10km以上
1,500メートル以下は雲なし、積乱雲なし
25日の 18時(UTC)から 25日の 20時(UTC)まで徐々に
の風 8kt

TAF: OEJN 250500Z 2506/2612 32005G15KT CAVOK BECMG 2518/2520 36008KT

4,000以上の空港の気象観測と天気予報(METAR報とTAF報)

利用可能な観測所は地図上に黄色い丸と赤い丸で示す。

丸の上にカーソルを重ねると観測所名を参照できる。

次にクリックすると気象観測と天気予報を参照できる。

マップの切り替え:黒色「×」印の緑ボタンをクリックして拡大、「-」印の緑ボタンをクリックして縮小、緑色の三角印をクリックして隣りの地図に切り替え


METAR-TAF: